Time;durP1;ratioP1;P1;durP2;ratioP2;P2;SDS_P1;SDS_P2;PMS_P1;PMS_P2;Temp;Humidity;BMP_temperature;BMP_pressure;BME280_temperature;BME280_humidity;BME280_pressure;Samples;Min_cycle;Max_cycle;Signal;HPM_P1;HPM_P2
2023/05/31 00:00:58;;;;;;;4.30;2.20;;;;;;;10.61;79.73;93225.06;2569580;23;20083;-82
2023/05/31 00:02:06;;;;;;;4.00;2.22;;;;;;;10.56;76.34;93226.31;2570277;22;20363;-85
2023/05/31 00:03:16;;;;;;;3.33;2.58;;;;;;;10.54;80.35;93223.31;2569634;23;20039;-83
2023/05/31 00:04:26;;;;;;;6.45;2.60;;;;;;;10.50;76.73;93217.28;2584270;22;20470;-85
2023/05/31 00:05:35;;;;;;;3.58;2.53;;;;;;;10.51;78.44;93218.78;2580434;22;20012;-83
2023/05/31 00:06:40;;;;;;;5.55;2.70;;;;;;;10.53;78.53;93221.03;2558908;23;20013;-84
2023/05/31 00:07:51;;;;;;;8.07;3.97;;;;;;;10.50;77.52;93222.63;2557145;23;20008;-84
2023/05/31 00:09:00;;;;;;;6.28;2.65;;;;;;;10.55;76.54;93219.47;2571950;22;20004;-85
2023/05/31 00:10:10;;;;;;;5.30;2.92;;;;;;;10.57;77.06;93219.03;2569130;23;20011;-85
2023/05/31 00:11:20;;;;;;;6.55;2.22;;;;;;;10.54;73.84;93222.56;2581930;22;20054;-85
2023/05/31 00:12:27;;;;;;;;;;;;;;;10.57;77.32;93213.69;2582978;22;20441;-84
2023/05/31 00:13:39;;;;;;;3.38;2.22;;;;;;;10.56;78.95;93218.28;2581329;22;19903;-85
2023/05/31 00:14:51;;;;;;;9.95;2.50;;;;;;;10.55;78.69;93221.41;2582815;22;20427;-85
2023/05/31 00:16:01;;;;;;;5.55;3.17;;;;;;;10.51;79.84;93224.13;2582312;22;20000;-85
2023/05/31 00:17:10;;;;;;;3.13;2.17;;;;;;;10.54;76.34;93219.91;2581854;22;20004;-84
2023/05/31 00:18:23;;;;;;;3.75;2.05;;;;;;;10.58;75.84;93224.00;2592641;22;20953;-84
2023/05/31 00:19:30;;;;;;;5.97;2.65;;;;;;;10.57;77.56;93219.78;2580151;23;20091;-85
2023/05/31 00:20:40;;;;;;;9.43;2.63;;;;;;;10.53;79.58;93224.47;2569767;22;20099;-82
2023/05/31 00:21:51;;;;;;;6.65;2.25;;;;;;;10.54;76.18;93225.25;2581929;22;20400;-83
2023/05/31 00:22:59;;;;;;;6.43;2.67;;;;;;;10.42;81.41;93225.84;2569951;23;20000;-83
2023/05/31 00:24:07;;;;;;;4.90;2.85;;;;;;;10.32;84.31;93225.66;2570546;22;20305;-82
2023/05/31 00:25:16;;;;;;;5.45;2.72;;;;;;;10.28;87.42;93221.53;2569097;23;20373;-82
2023/05/31 00:26:26;;;;;;;5.75;2.53;;;;;;;10.20;85.97;93223.56;2571148;22;20015;-82
2023/05/31 00:27:35;;;;;;;5.43;3.03;;;;;;;10.12;90.97;93221.41;2569684;23;20001;-83
2023/05/31 00:28:46;;;;;;;6.40;2.80;;;;;;;10.14;92.96;93227.09;2558909;23;20109;-83
2023/05/31 00:29:54;;;;;;;5.15;2.20;;;;;;;10.16;90.87;93230.88;2559219;23;20005;-84
2023/05/31 00:31:03;;;;;;;4.88;2.30;;;;;;;10.01;93.82;93221.63;2570665;22;20039;-83
2023/05/31 00:32:12;;;;;;;8.57;2.80;;;;;;;9.96;91.86;93233.50;2569070;23;20001;-85
2023/05/31 00:33:25;;;;;;;4.45;2.28;;;;;;;9.87;96.18;93235.22;2570742;22;20448;-83
2023/05/31 00:34:35;;;;;;;5.20;2.47;;;;;;;9.87;95.74;93235.97;2570581;23;20016;-86
2023/05/31 00:35:45;;;;;;;4.35;2.22;;;;;;;9.78;97.55;93231.16;2571314;22;20290;-84
2023/05/31 00:36:55;;;;;;;5.70;2.30;;;;;;;9.70;100.00;93231.66;2569569;23;20741;-84
2023/05/31 00:38:08;;;;;;;4.18;2.67;;;;;;;9.65;100.00;93240.91;2559218;23;20001;-84
2023/05/31 00:39:16;;;;;;;3.97;2.17;;;;;;;9.66;100.00;93233.63;2585975;22;20377;-83
2023/05/31 00:40:26;;;;;;;3.95;2.45;;;;;;;9.64;100.00;93228.72;2592576;22;20090;-85
2023/05/31 00:41:38;;;;;;;3.67;2.08;;;;;;;9.45;100.00;93232.84;2569715;23;20063;-85
2023/05/31 00:42:48;;;;;;;3.28;2.30;;;;;;;9.46;100.00;93236.25;2560312;23;20032;-83
2023/05/31 00:43:59;;;;;;;5.25;2.28;;;;;;;9.45;100.00;93232.09;2571725;22;20008;-82
2023/05/31 00:45:07;;;;;;;3.05;2.08;;;;;;;9.44;100.00;93231.34;2569760;23;20470;-82
2023/05/31 00:46:31;;;;;;;3.88;2.40;;;;;;;9.34;100.00;93233.00;2558244;23;20039;-82
2023/05/31 00:47:41;;;;;;;5.10;2.28;;;;;;;9.36;100.00;93223.84;2564653;23;20024;-83
2023/05/31 00:48:47;;;;;;;;;;;;;;;9.23;100.00;93229.00;2572443;22;20328;-84
2023/05/31 00:49:59;;;;;;;6.65;2.53;;;;;;;9.42;100.00;93236.31;2594237;22;20272;-83
2023/05/31 00:51:10;;;;;;;8.38;2.70;;;;;;;9.24;100.00;93233.91;2580271;22;20500;-81
2023/05/31 00:52:20;;;;;;;4.95;2.35;;;;;;;9.30;100.00;93226.94;2559259;23;20016;-85
2023/05/31 00:53:30;;;;;;;3.42;2.15;;;;;;;9.24;100.00;93228.56;2571940;22;20043;-86
2023/05/31 00:54:41;;;;;;;4.10;2.35;;;;;;;9.04;100.00;93228.50;2569581;23;20510;-85
2023/05/31 00:55:51;;;;;;;5.30;2.63;;;;;;;9.05;100.00;93219.34;2571544;22;20000;-85
2023/05/31 00:57:02;;;;;;;5.82;2.60;;;;;;;8.89;100.00;93226.41;2592661;22;20000;-85
2023/05/31 00:58:13;;;;;;;4.75;2.35;;;;;;;8.97;100.00;93225.91;2582545;22;20006;-84
2023/05/31 00:59:22;;;;;;;3.58;2.42;;;;;;;8.97;100.00;93231.25;2580169;23;20008;-84
2023/05/31 01:00:32;;;;;;;4.50;2.40;;;;;;;8.95;100.00;93225.56;2558274;23;20005;-87
2023/05/31 01:01:45;;;;;;;3.65;2.20;;;;;;;8.95;100.00;93225.56;2558761;23;20005;-83
2023/05/31 01:03:01;;;;;;;6.32;2.65;;;;;;;8.95;100.00;93230.13;2560547;23;20001;-86
2023/05/31 01:04:11;;;;;;;3.97;2.25;;;;;;;8.94;100.00;93224.06;2573710;22;20340;-83
2023/05/31 01:05:21;;;;;;;5.97;2.78;;;;;;;8.89;100.00;93221.84;2569253;23;20012;-84
2023/05/31 01:06:32;;;;;;;7.03;2.85;;;;;;;8.91;100.00;93218.75;2558721;23;20001;-83
2023/05/31 01:07:43;;;;;;;4.78;2.60;;;;;;;8.89;100.00;93219.16;2571896;22;20692;-86
2023/05/31 01:08:55;;;;;;;4.28;2.60;;;;;;;8.91;100.00;93216.88;2569571;23;20015;-81
2023/05/31 01:10:06;;;;;;;4.35;2.33;;;;;;;8.95;100.00;93214.13;2559526;23;20064;-85
2023/05/31 01:11:28;;;;;;;6.35;2.50;;;;;;;8.93;100.00;93219.88;2571807;22;20065;-83
2023/05/31 01:12:47;;;;;;;6.63;2.80;;;;;;;8.97;100.00;93217.91;2584515;22;19999;-83
2023/05/31 01:14:23;;;;;;;6.20;2.65;;;;;;;9.01;100.00;93213.28;2583725;22;20046;-84
2023/05/31 01:16:08;;;;;;;7.13;2.42;;;;;;;9.09;100.00;93213.97;2574403;23;20079;-83
2023/05/31 01:17:31;;;;;;;2.70;2.40;;;;;;;9.15;100.00;93216.91;2569331;22;20015;-85
2023/05/31 01:19:06;;;;;;;5.57;2.60;;;;;;;9.17;100.00;93207.34;2579732;23;20341;-83
2023/05/31 01:20:20;;;;;;;7.95;2.40;;;;;;;9.28;100.00;93207.94;2586998;22;20008;-85
2023/05/31 01:21:51;;;;;;;7.57;3.08;;;;;;;9.29;100.00;93206.78;2570280;23;20432;-86
2023/05/31 01:23:17;;;;;;;7.82;3.30;;;;;;;9.32;100.00;93211.31;2586408;22;20014;-85
2023/05/31 01:24:51;;;;;;;5.10;2.38;;;;;;;9.35;100.00;93207.09;2572653;23;20019;-84
2023/05/31 01:26:17;;;;;;;6.63;3.00;;;;;;;9.37;100.00;93202.09;2563377;23;20008;-83
2023/05/31 01:27:28;;;;;;;6.05;2.65;;;;;;;9.38;100.00;93211.59;2584911;22;20442;-84
2023/05/31 01:28:40;;;;;;;4.68;2.55;;;;;;;9.41;100.00;93207.38;2569896;23;20012;-84
2023/05/31 01:29:51;;;;;;;8.77;2.90;;;;;;;9.45;100.00;93202.75;2572328;22;20371;-82
2023/05/31 01:31:07;;;;;;;7.03;2.80;;;;;;;9.45;100.00;93211.50;2568955;23;20467;-83
2023/05/31 01:32:18;;;;;;;7.47;2.80;;;;;;;9.43;100.00;93208.47;2573908;22;19997;-84
2023/05/31 01:33:27;;;;;;;6.80;2.75;;;;;;;9.45;100.00;93208.81;2569767;23;20055;-82
2023/05/31 01:34:40;;;;;;;7.13;2.70;;;;;;;9.50;100.00;93207.59;2558524;23;20001;-83
2023/05/31 01:35:49;;;;;;;5.22;2.50;;;;;;;9.48;100.00;93204.56;2559832;23;20448;-82
2023/05/31 01:36:59;;;;;;;5.95;2.47;;;;;;;9.52;100.00;93206.03;2558651;23;20008;-83
2023/05/31 01:38:08;;;;;;;4.40;2.50;;;;;;;9.50;100.00;93205.69;2559117;23;20477;-84
2023/05/31 01:39:20;;;;;;;9.55;2.67;;;;;;;9.41;100.00;93210.03;2570562;22;20071;-83
2023/05/31 01:40:31;;;;;;;8.07;2.75;;;;;;;9.51;100.00;93211.78;2582260;22;20102;-81
2023/05/31 01:41:46;;;;;;;5.70;2.83;;;;;;;9.43;100.00;93210.38;2569626;23;20087;-84
2023/05/31 01:42:57;;;;;;;5.15;2.75;;;;;;;9.43;100.00;93210.38;2560619;23;20051;-83
2023/05/31 01:44:09;;;;;;;7.55;2.83;;;;;;;9.39;100.00;93215.00;2571339;22;20306;-82
2023/05/31 01:45:20;;;;;;;5.40;2.70;;;;;;;9.38;100.00;93208.94;2570152;23;20259;-82
2023/05/31 01:46:29;;;;;;;9.45;2.65;;;;;;;9.45;100.00;93211.50;2571647;22;20005;-81
2023/05/31 01:47:40;;;;;;;4.28;3.00;;;;;;;9.46;100.00;93214.91;2568700;23;20012;-84
2023/05/31 01:48:53;;;;;;;5.38;2.80;;;;;;;9.47;100.00;93211.09;2559425;23;20336;-84
2023/05/31 01:49:55;;;;;;;6.53;2.88;;;;;;;9.51;100.00;93207.19;2560018;23;20032;-83
2023/05/31 01:50:59;;;;;;;4.72;2.33;;;;;;;9.54;100.00;93208.31;2567879;22;20035;-83
2023/05/31 01:52:11;;;;;;;8.90;2.78;;;;;;;9.51;100.00;93209.88;2592856;22;19999;-83
2023/05/31 01:53:21;;;;;;;6.55;2.70;;;;;;;9.51;100.00;93201.84;2579751;22;20475;-81
2023/05/31 01:54:27;;;;;;;;;;;;;;;9.47;100.00;93213.75;2559023;23;20112;-83
2023/05/31 01:55:38;;;;;;;7.65;2.50;;;;;;;9.43;100.00;93205.03;2556928;23;19904;-84
2023/05/31 01:56:48;;;;;;;3.42;2.60;;;;;;;9.56;100.00;93203.31;2583854;22;20012;-83
2023/05/31 01:58:01;;;;;;;4.95;2.53;;;;;;;9.43;100.00;93205.78;2592159;22;20027;-85
2023/05/31 01:59:11;;;;;;;4.75;2.45;;;;;;;9.46;100.00;93204.25;2569737;23;20032;-84
2023/05/31 02:00:19;;;;;;;5.18;2.53;;;;;;;9.41;100.00;93205.47;2571494;22;20320;-86
2023/05/31 02:01:30;;;;;;;4.13;2.55;;;;;;;9.39;100.00;93207.75;2581949;22;20008;-81
2023/05/31 02:02:50;;;;;;;5.60;2.75;;;;;;;9.29;100.00;93206.03;2568996;23;20452;-83
2023/05/31 02:04:02;;;;;;;6.72;2.85;;;;;;;9.23;100.00;93210.31;2562506;23;20139;-86
2023/05/31 02:05:15;;;;;;;8.60;2.88;;;;;;;9.20;100.00;93208.44;2559901;23;20424;-84
2023/05/31 02:06:27;;;;;;;4.38;2.67;;;;;;;9.21;100.00;93213.38;2572472;22;20004;-86
2023/05/31 02:07:38;;;;;;;6.63;2.80;;;;;;;9.17;100.00;93214.59;2569290;23;20311;-85
2023/05/31 02:08:51;;;;;;;7.38;2.88;;;;;;;9.18;100.00;93210.78;2571470;22;20004;-83
2023/05/31 02:10:00;;;;;;;8.05;2.75;;;;;;;9.11;100.00;93211.63;2569754;23;20009;-83
2023/05/31 02:11:10;;;;;;;6.85;2.70;;;;;;;9.15;100.00;93211.59;2569565;22;20012;-85
2023/05/31 02:12:20;;;;;;;7.00;3.08;;;;;;;9.15;100.00;93208.91;2581383;22;20134;-82
2023/05/31 02:13:33;;;;;;;6.05;2.88;;;;;;;9.06;100.00;93209.41;2568801;23;20095;-84
2023/05/31 02:14:43;;;;;;;7.57;2.90;;;;;;;9.12;100.00;93212.38;2559503;23;20008;-83
2023/05/31 02:15:53;;;;;;;7.70;2.90;;;;;;;9.12;100.00;93207.03;2558411;23;20062;-86
2023/05/31 02:17:03;;;;;;;4.03;2.63;;;;;;;9.11;100.00;93214.28;2581709;22;20011;-83
2023/05/31 02:18:19;;;;;;;6.20;2.70;;;;;;;9.10;100.00;93218.13;2569258;23;20008;-85
2023/05/31 02:19:31;;;;;;;7.30;3.83;;;;;;;9.06;100.00;93210.16;2573209;22;20023;-86
2023/05/31 02:20:41;;;;;;;6.78;2.90;;;;;;;9.00;100.00;93219.00;2569035;23;20013;-84
2023/05/31 02:21:51;;;;;;;3.58;2.63;;;;;;;9.01;100.00;93210.63;2569231;23;20011;-87
2023/05/31 02:23:03;;;;;;;4.97;3.00;;;;;;;8.98;100.00;93222.09;2558517;23;20341;-85
2023/05/31 02:24:13;;;;;;;7.85;3.10;;;;;;;8.95;100.00;93220.22;2559214;23;20005;-84
2023/05/31 02:25:23;;;;;;;4.97;2.45;;;;;;;8.95;100.00;93222.13;2558320;23;20001;-82
2023/05/31 02:26:32;;;;;;;7.50;3.45;;;;;;;8.97;100.00;93225.91;2570807;22;20464;-85
2023/05/31 02:27:43;;;;;;;4.70;2.75;;;;;;;8.92;100.00;93225.63;2581593;22;20027;-82
2023/05/31 02:28:56;;;;;;;9.13;3.17;;;;;;;8.98;100.00;93219.44;2581519;22;20077;-82
2023/05/31 02:30:08;;;;;;;5.20;3.75;;;;;;;9.04;100.00;93219.72;2569806;23;20380;-83
2023/05/31 02:31:18;;;;;;;7.88;3.67;;;;;;;8.93;100.00;93221.78;2558548;23;20373;-83
2023/05/31 02:32:26;;;;;;;4.65;3.10;;;;;;;8.88;100.00;93225.66;2570964;22;20032;-85
2023/05/31 02:33:35;;;;;;;5.05;2.80;;;;;;;8.94;100.00;93223.28;2581543;22;20012;-86
2023/05/31 02:34:48;;;;;;;4.20;3.50;;;;;;;8.94;100.00;93210.72;2581175;22;20439;-84
2023/05/31 02:35:58;;;;;;;3.63;2.30;;;;;;;8.97;100.00;93215.25;2569413;23;20792;-83
2023/05/31 02:37:11;;;;;;;5.43;2.92;;;;;;;9.00;100.00;93209.13;2558052;23;20001;-84
2023/05/31 02:38:21;;;;;;;5.95;2.63;;;;;;;9.02;100.00;93212.13;2572305;22;20034;-84
2023/05/31 02:39:31;;;;;;;4.43;2.58;;;;;;;9.02;100.00;93214.78;2592175;22;20008;-82
2023/05/31 02:40:41;;;;;;;5.20;2.80;;;;;;;9.11;100.00;93211.63;2591980;22;20259;-83
2023/05/31 02:41:48;;;;;;;;;;;;;;;9.12;100.00;93213.13;2582404;22;20362;-85
2023/05/31 02:42:58;;;;;;;5.63;2.35;;;;;;;9.13;100.00;93214.66;2581003;22;20398;-84
2023/05/31 02:44:08;;;;;;;8.73;2.55;;;;;;;9.05;100.00;93208.66;2581368;22;20011;-82
2023/05/31 02:45:17;;;;;;;7.47;2.67;;;;;;;9.10;100.00;93212.78;2581755;22;20007;-82
2023/05/31 02:46:26;;;;;;;4.53;2.60;;;;;;;9.05;100.00;93216.66;2579675;23;20028;-86
2023/05/31 02:47:36;;;;;;;5.93;2.50;;;;;;;9.04;100.00;93211.72;2569115;23;20015;-85
2023/05/31 02:48:45;;;;;;;6.22;2.90;;;;;;;9.07;100.00;93213.59;2583713;22;20016;-84
2023/05/31 02:49:55;;;;;;;9.63;2.88;;;;;;;9.04;100.00;93215.16;2579597;22;20015;-82
2023/05/31 02:51:03;;;;;;;;;;;;;;;8.98;100.00;93211.44;2582002;22;20171;-82
2023/05/31 02:52:15;;;;;;;4.82;2.55;;;;;;;9.07;100.00;93214.34;2580701;22;19907;-83
2023/05/31 02:53:30;;;;;;;6.85;2.70;;;;;;;8.98;100.00;93216.75;2582015;22;20062;-82
2023/05/31 02:54:40;;;;;;;5.15;2.67;;;;;;;8.98;100.00;93218.66;2582139;22;20083;-86
2023/05/31 02:55:51;;;;;;;6.53;2.67;;;;;;;8.94;100.00;93215.31;2581536;22;20356;-82
2023/05/31 02:57:01;;;;;;;4.65;2.22;;;;;;;8.97;100.00;93215.25;2594696;22;20393;-81
2023/05/31 02:58:11;;;;;;;4.90;2.40;;;;;;;9.02;100.00;93209.47;2579608;22;20469;-82
2023/05/31 02:59:25;;;;;;;5.57;2.67;;;;;;;9.00;100.00;93208.34;2569187;23;20055;-82
2023/05/31 03:00:34;;;;;;;7.57;2.65;;;;;;;8.92;100.00;93205.06;2581308;22;20091;-84
2023/05/31 03:01:46;;;;;;;8.48;3.00;;;;;;;8.98;100.00;93210.69;2581326;22;20004;-86
2023/05/31 03:02:56;;;;;;;7.30;3.00;;;;;;;9.02;100.00;93206.06;2568997;23;20005;-82
2023/05/31 03:04:06;;;;;;;7.50;2.67;;;;;;;9.00;100.00;93206.47;2570669;22;20435;-83
2023/05/31 03:05:12;;;;;;;;;;;;;;;9.01;100.00;93205.31;2581870;22;20129;-85
2023/05/31 03:06:23;;;;;;;5.07;2.42;;;;;;;9.01;100.00;93205.31;2579480;23;19978;-82
2023/05/31 03:07:32;;;;;;;4.88;2.40;;;;;;;9.01;100.00;93201.88;2581381;22;20443;-82
2023/05/31 03:08:41;;;;;;;4.03;2.60;;;;;;;9.04;100.00;93199.16;2581351;22;20008;-85
2023/05/31 03:09:51;;;;;;;3.65;2.30;;;;;;;9.02;100.00;93206.06;2568675;23;20011;-82
2023/05/31 03:10:58;;;;;;;;;;;;;;;9.11;100.00;93206.28;2558359;23;20059;-86
2023/05/31 03:12:07;;;;;;;5.47;2.50;;;;;;;9.09;100.00;93208.63;2569553;22;19904;-83
2023/05/31 03:13:16;;;;;;;5.30;2.50;;;;;;;9.02;100.00;93206.81;2581253;22;20033;-83
2023/05/31 03:14:25;;;;;;;9.82;2.53;;;;;;;9.15;100.00;93199.00;2568804;23;20020;-85
2023/05/31 03:15:32;;;;;;;7.95;2.72;;;;;;;9.04;100.00;93201.06;2569824;22;20009;-82
2023/05/31 03:16:42;;;;;;;6.13;2.35;;;;;;;9.01;100.00;93197.31;2580855;22;20027;-82
2023/05/31 03:17:52;;;;;;;8.23;3.10;;;;;;;8.90;100.00;93199.34;2568849;23;20008;-85
2023/05/31 03:19:01;;;;;;;10.77;2.65;;;;;;;8.93;100.00;93203.88;2558277;23;20005;-82
2023/05/31 03:20:12;;;;;;;4.82;2.70;;;;;;;8.85;100.00;93202.47;2558626;23;20524;-84
2023/05/31 03:21:24;;;;;;;5.78;2.83;;;;;;;8.83;100.00;93202.13;2557935;23;20005;-82
2023/05/31 03:22:37;;;;;;;7.05;2.78;;;;;;;8.69;100.00;93197.75;2559381;23;20017;-84
2023/05/31 03:23:46;;;;;;;6.22;2.63;;;;;;;8.73;100.00;93211.00;2571803;22;20467;-83
2023/05/31 03:24:57;;;;;;;5.30;2.75;;;;;;;8.75;100.00;93206.03;2581934;22;20083;-82
2023/05/31 03:26:10;;;;;;;5.78;2.95;;;;;;;8.64;100.00;93206.16;2581777;22;20007;-84
2023/05/31 03:27:19;;;;;;;3.88;2.65;;;;;;;8.67;100.00;93205.38;2570445;23;20070;-85
2023/05/31 03:28:27;;;;;;;6.18;2.90;;;;;;;8.66;100.00;93213.78;2558670;23;20047;-86
2023/05/31 03:29:43;;;;;;;3.85;2.55;;;;;;;8.54;100.00;93215.06;2558373;23;20012;-86
2023/05/31 03:30:55;;;;;;;5.32;2.90;;;;;;;8.51;100.00;93213.19;2560557;23;20307;-85
2023/05/31 03:32:04;;;;;;;8.80;2.60;;;;;;;8.56;100.00;93210.09;2572725;22;20058;-86
2023/05/31 03:33:14;;;;;;;12.35;2.67;;;;;;;8.53;100.00;93211.66;2569819;23;20444;-84
2023/05/31 03:34:22;;;;;;;;;;;;;;;8.55;100.00;93214.66;2559710;23;20470;-81
2023/05/31 03:35:31;;;;;;;7.00;2.70;;;;;;;8.56;100.00;93212.78;2583554;22;19907;-84
2023/05/31 03:36:41;;;;;;;9.80;3.08;;;;;;;8.55;100.00;93208.56;2605681;22;20007;-81
2023/05/31 03:37:50;;;;;;;11.40;2.85;;;;;;;8.39;100.00;93211.06;2593053;22;20010;-83
2023/05/31 03:39:00;;;;;;;7.70;2.80;;;;;;;8.38;100.00;93207.63;2580132;23;20043;-83
2023/05/31 03:40:12;;;;;;;3.70;2.40;;;;;;;8.46;100.00;93209.06;2571727;22;20031;-82
2023/05/31 03:41:22;;;;;;;4.75;2.60;;;;;;;8.41;100.00;93209.50;2582383;22;20046;-84
2023/05/31 03:42:32;;;;;;;10.63;2.95;;;;;;;8.34;100.00;93206.91;2579958;23;20391;-80
2023/05/31 03:43:39;;;;;;;;;;;;;;;8.42;100.00;93202.25;2585466;22;20008;-82
2023/05/31 03:44:48;;;;;;;3.65;2.40;;;;;;;8.54;100.00;93207.06;2580542;23;19914;-82
2023/05/31 03:46:00;;;;;;;7.47;2.90;;;;;;;8.58;100.00;93203.22;2582047;22;20403;-84
2023/05/31 03:47:13;;;;;;;5.00;2.63;;;;;;;8.61;100.00;93206.25;2582407;22;20027;-85
2023/05/31 03:48:22;;;;;;;5.35;2.33;;;;;;;8.63;100.00;93202.00;2582591;22;20094;-85
2023/05/31 03:49:32;;;;;;;8.70;3.15;;;;;;;8.65;100.00;93206.91;2581981;22;20367;-86
2023/05/31 03:50:43;;;;;;;6.63;2.85;;;;;;;8.66;100.00;93198.53;2581661;22;20063;-84
2023/05/31 03:51:53;;;;;;;4.32;2.58;;;;;;;8.65;100.00;93210.38;2582341;22;20010;-83
2023/05/31 03:53:02;;;;;;;4.53;2.72;;;;;;;8.57;100.00;93201.69;2582156;22;20339;-83
2023/05/31 03:54:12;;;;;;;7.38;2.75;;;;;;;8.56;100.00;93210.84;2582174;22;20411;-81
2023/05/31 03:55:24;;;;;;;7.55;2.67;;;;;;;8.60;100.00;93204.72;2582083;22;20010;-84
2023/05/31 03:56:34;;;;;;;5.72;2.80;;;;;;;8.58;100.00;93197.88;2583022;22;20391;-82
2023/05/31 03:57:44;;;;;;;5.57;2.80;;;;;;;8.55;100.00;93209.31;2582061;22;20034;-85
2023/05/31 03:58:54;;;;;;;9.32;2.88;;;;;;;8.48;100.00;93206.00;2593150;22;20039;-82
2023/05/31 04:00:06;;;;;;;5.57;2.80;;;;;;;8.69;100.00;93197.75;2593040;22;20011;-85
2023/05/31 04:01:17;;;;;;;4.35;2.50;;;;;;;8.67;100.00;93201.97;2582047;22;20031;-85
2023/05/31 04:02:25;;;;;;;5.05;2.35;;;;;;;8.65;100.00;93204.25;2569608;23;20480;-84
2023/05/31 04:03:36;;;;;;;6.28;3.28;;;;;;;8.61;100.00;93201.66;2570809;22;20009;-84
2023/05/31 04:04:46;;;;;;;7.45;2.85;;;;;;;8.52;100.00;93201.41;2569962;23;20091;-84
2023/05/31 04:05:56;;;;;;;5.38;2.75;;;;;;;8.50;100.00;93201.03;2559406;23;20389;-83
2023/05/31 04:07:08;;;;;;;8.50;2.83;;;;;;;8.46;100.00;93211.72;2571369;22;20004;-84
2023/05/31 04:08:13;;;;;;;8.10;2.53;;;;;;;8.52;100.00;93214.72;2580207;22;20047;-84
2023/05/31 04:09:23;;;;;;;8.32;2.83;;;;;;;8.52;100.00;93204.06;2568684;23;20034;-83
2023/05/31 04:10:33;;;;;;;5.85;2.67;;;;;;;8.57;100.00;93217.69;2558676;23;20103;-84
2023/05/31 04:11:43;;;;;;;7.53;2.92;;;;;;;8.56;100.00;93210.84;2571282;22;20004;-84
2023/05/31 04:12:52;;;;;;;8.00;2.67;;;;;;;8.52;100.00;93212.06;2575081;22;20008;-86
2023/05/31 04:14:01;;;;;;;7.95;2.92;;;;;;;8.54;100.00;93212.41;2563153;23;20032;-83
2023/05/31 04:15:11;;;;;;;5.70;2.67;;;;;;;8.57;100.00;93220.34;2553161;23;20052;-83
2023/05/31 04:16:20;;;;;;;4.35;2.80;;;;;;;8.59;100.00;93214.63;2554903;23;20040;-86
2023/05/31 04:17:30;;;;;;;6.53;2.70;;;;;;;8.62;100.00;93216.50;2565934;22;20494;-84
2023/05/31 04:18:40;;;;;;;4.18;2.80;;;;;;;8.65;100.00;93212.25;2586363;22;20431;-84
2023/05/31 04:19:50;;;;;;;5.22;2.45;;;;;;;8.73;100.00;93214.41;2565865;23;20087;-84
2023/05/31 04:20:58;;;;;;;4.53;2.47;;;;;;;8.70;100.00;93212.59;2567427;22;20464;-86
2023/05/31 04:22:07;;;;;;;4.45;2.60;;;;;;;8.70;100.00;93207.25;2577546;22;20083;-84
2023/05/31 04:23:16;;;;;;;6.75;2.55;;;;;;;8.74;100.00;93215.97;2565330;23;20012;-85
2023/05/31 04:24:26;;;;;;;7.68;2.97;;;;;;;8.71;100.00;93216.75;2554265;23;20319;-83
2023/05/31 04:25:32;;;;;;;3.65;2.50;;;;;;;8.68;100.00;93222.88;2555757;23;20444;-83
2023/05/31 04:26:42;;;;;;;4.75;2.72;;;;;;;8.77;100.00;93211.72;2553438;23;20326;-84
2023/05/31 04:27:51;;;;;;;4.90;2.70;;;;;;;8.68;100.00;93222.13;2567257;22;20028;-84
2023/05/31 04:29:02;;;;;;;5.32;2.55;;;;;;;8.68;100.00;93222.88;2565586;23;20470;-84
2023/05/31 04:30:12;;;;;;;3.78;2.45;;;;;;;8.78;100.00;93226.53;2565636;23;20553;-84
2023/05/31 04:31:24;;;;;;;4.13;2.50;;;;;;;8.86;100.00;93221.88;2555074;23;20004;-83
2023/05/31 04:32:39;;;;;;;4.88;2.75;;;;;;;8.94;100.00;93220.63;2556723;23;20072;-84
2023/05/31 04:33:48;;;;;;;8.38;2.97;;;;;;;8.91;100.00;93213.44;2570152;22;20023;-84
2023/05/31 04:35:03;;;;;;;8.48;2.55;;;;;;;9.00;100.00;93213.69;2567009;23;20447;-83
2023/05/31 04:36:12;;;;;;;5.90;2.88;;;;;;;8.93;100.00;93211.88;2570724;22;20062;-83
2023/05/31 04:37:22;;;;;;;4.85;2.75;;;;;;;8.94;100.00;93218.72;2579235;22;20011;-85
2023/05/31 04:38:32;;;;;;;6.57;2.60;;;;;;;8.98;100.00;93222.09;2566594;23;20024;-85
2023/05/31 04:39:43;;;;;;;8.63;3.03;;;;;;;9.01;100.00;93210.63;2568931;22;20088;-84
2023/05/31 04:40:52;;;;;;;5.07;2.40;;;;;;;9.05;100.00;93218.59;2579278;22;20462;-85
2023/05/31 04:42:03;;;;;;;5.68;2.60;;;;;;;9.13;100.00;93221.88;2578574;22;20004;-84
2023/05/31 04:43:07;;;;;;;5.63;2.88;;;;;;;9.15;100.00;93216.91;2579365;22;20008;-85
2023/05/31 04:44:14;;;;;;;4.40;2.40;;;;;;;9.13;100.00;93221.88;2578527;22;20416;-85
2023/05/31 04:45:16;;;;;;;8.85;2.80;;;;;;;9.14;100.00;93218.81;2579193;22;20004;-85
2023/05/31 04:46:24;;;;;;;8.27;2.80;;;;;;;9.16;100.00;93218.41;2577998;22;20340;-84
2023/05/31 04:47:34;;;;;;;3.45;2.40;;;;;;;9.21;100.00;93217.94;2592080;22;20130;-81
2023/05/31 04:48:43;;;;;;;4.97;2.50;;;;;;;9.31;100.00;93215.16;2589391;22;20091;-82
2023/05/31 04:49:48;;;;;;;7.53;2.60;;;;;;;9.47;100.00;93211.84;2591954;22;20158;-84
2023/05/31 04:50:56;;;;;;;6.00;2.58;;;;;;;9.46;100.00;93215.66;2576420;22;20351;-84
2023/05/31 04:52:01;;;;;;;6.53;2.58;;;;;;;9.47;100.00;93219.09;2566604;23;20001;-83
2023/05/31 04:53:08;;;;;;;6.43;2.60;;;;;;;9.48;100.00;93217.91;2566164;23;20008;-85
2023/05/31 04:54:09;;;;;;;12.73;3.10;;;;;;;9.49;100.00;93209.53;2567348;22;20034;-81
2023/05/31 04:55:10;;;;;;;3.35;2.50;;;;;;;9.53;100.00;93220.91;2577560;22;20015;-85
2023/05/31 04:56:12;;;;;;;5.07;2.60;;;;;;;9.52;100.00;93213.28;2590861;22;20090;-82
2023/05/31 04:57:16;;;;;;;6.07;2.75;;;;;;;9.62;100.00;93214.28;2590134;22;20000;-81
2023/05/31 04:58:19;;;;;;;4.97;2.60;;;;;;;9.64;100.00;93214.63;2577922;22;20008;-83
2023/05/31 04:59:20;;;;;;;7.32;2.80;;;;;;;9.70;100.00;93216.44;2565409;23;20062;-83
2023/05/31 05:00:21;;;;;;;3.65;2.40;;;;;;;9.68;100.00;93223.31;2552262;23;20005;-87
2023/05/31 05:01:30;;;;;;;6.55;2.60;;;;;;;9.85;100.00;93216.94;2565252;22;20079;-82
2023/05/31 05:02:31;;;;;;;5.68;2.30;;;;;;;9.88;100.00;93216.13;2567447;23;20038;-84
2023/05/31 05:03:32;;;;;;;4.00;2.20;;;;;;;10.00;100.00;93215.50;2553800;23;20009;-85
2023/05/31 05:04:40;;;;;;;4.32;2.75;;;;;;;9.97;100.00;93216.34;2556336;23;20444;-87
2023/05/31 05:05:41;;;;;;;3.92;2.63;;;;;;;9.96;100.00;93220.16;2556028;23;20521;-85
2023/05/31 05:06:43;;;;;;;5.63;2.63;;;;;;;9.91;100.00;93222.56;2564662;23;20066;-82
2023/05/31 05:07:44;;;;;;;3.53;2.20;;;;;;;10.11;100.00;93219.91;2564731;23;20039;-80
2023/05/31 05:08:46;;;;;;;8.77;2.90;;;;;;;10.25;100.00;93222.34;2552057;23;20004;-85
2023/05/31 05:09:47;;;;;;;7.25;2.90;;;;;;;10.20;100.00;93217.47;2552466;23;20083;-82
2023/05/31 05:10:49;;;;;;;4.70;2.75;;;;;;;10.16;100.00;93225.53;2551865;23;20179;-81
2023/05/31 05:11:50;;;;;;;4.93;2.65;;;;;;;10.02;100.00;93223.88;2564370;23;20005;-84
2023/05/31 05:12:51;;;;;;;4.15;2.67;;;;;;;9.99;100.00;93219.34;2564540;22;20119;-84
2023/05/31 05:13:52;;;;;;;6.20;2.55;;;;;;;10.11;100.00;93230.59;2577336;22;20012;-84
2023/05/31 05:14:53;;;;;;;4.38;2.65;;;;;;;10.16;100.00;93220.19;2564779;23;20286;-82
2023/05/31 05:15:54;;;;;;;4.78;2.88;;;;;;;10.12;100.00;93226.75;2577931;22;20004;-83
2023/05/31 05:16:55;;;;;;;5.90;2.45;;;;;;;10.21;100.00;93222.38;2602727;22;20018;-82
2023/05/31 05:17:56;;;;;;;5.90;2.85;;;;;;;10.23;100.00;93224.66;2577849;22;20004;-84
2023/05/31 05:18:57;;;;;;;5.80;2.60;;;;;;;10.27;100.00;93223.47;2564315;23;20447;-85
2023/05/31 05:19:59;;;;;;;5.43;2.35;;;;;;;10.28;100.00;93224.97;2564363;23;20004;-84
2023/05/31 05:21:00;;;;;;;5.50;2.35;;;;;;;10.27;100.00;93220.00;2589335;22;20027;-84
2023/05/31 05:22:02;;;;;;;4.88;2.95;;;;;;;10.41;100.00;93219.75;2576967;22;20717;-86
2023/05/31 05:23:06;;;;;;;6.13;2.63;;;;;;;10.32;100.00;93217.63;2565246;22;20012;-85
2023/05/31 05:24:07;;;;;;;6.63;2.88;;;;;;;10.34;100.00;93225.22;2565427;23;20011;-83
2023/05/31 05:25:09;;;;;;;7.53;2.72;;;;;;;10.49;100.00;93221.13;2564870;22;20008;-82
2023/05/31 05:26:10;;;;;;;5.63;2.65;;;;;;;10.47;100.00;93226.13;2590349;22;20003;-83
2023/05/31 05:27:11;;;;;;;6.63;2.88;;;;;;;10.50;100.00;93225.31;2577112;22;20081;-82
2023/05/31 05:28:12;;;;;;;9.93;2.97;;;;;;;10.60;100.00;93215.56;2577529;23;20062;-83
2023/05/31 05:29:13;;;;;;;4.88;2.90;;;;;;;10.65;100.00;93225.75;2577447;23;20004;-81